sensor_id;sensor_type;location;lat;lon;timestamp;P1;durP1;ratioP1;P2;durP2;ratioP2
11699;SDS011;5906;51.660;6.674;2023-07-13T00:01:52;12.67;;;3.50;;
11699;SDS011;5906;51.660;6.674;2023-07-13T00:04:21;12.07;;;3.70;;
11699;SDS011;5906;51.660;6.674;2023-07-13T00:06:51;7.63;;;3.83;;
11699;SDS011;5906;51.660;6.674;2023-07-13T00:09:19;5.33;;;3.17;;
11699;SDS011;5906;51.660;6.674;2023-07-13T00:11:53;9.80;;;3.70;;
11699;SDS011;5906;51.660;6.674;2023-07-13T00:14:21;10.10;;;3.57;;
11699;SDS011;5906;51.660;6.674;2023-07-13T00:16:50;10.83;;;3.63;;
11699;SDS011;5906;51.660;6.674;2023-07-13T00:19:16;8.10;;;3.13;;
11699;SDS011;5906;51.660;6.674;2023-07-13T00:21:44;10.80;;;3.30;;
11699;SDS011;5906;51.660;6.674;2023-07-13T00:24:14;9.97;;;3.30;;
11699;SDS011;5906;51.660;6.674;2023-07-13T00:26:45;6.93;;;3.10;;
11699;SDS011;5906;51.660;6.674;2023-07-13T00:29:12;8.77;;;2.97;;
11699;SDS011;5906;51.660;6.674;2023-07-13T00:31:39;5.20;;;2.77;;
11699;SDS011;5906;51.660;6.674;2023-07-13T00:34:06;11.27;;;3.57;;
11699;SDS011;5906;51.660;6.674;2023-07-13T00:36:33;7.20;;;3.57;;
11699;SDS011;5906;51.660;6.674;2023-07-13T00:39:00;9.40;;;3.13;;
11699;SDS011;5906;51.660;6.674;2023-07-13T00:41:27;10.73;;;3.77;;
11699;SDS011;5906;51.660;6.674;2023-07-13T00:43:54;10.57;;;3.70;;
11699;SDS011;5906;51.660;6.674;2023-07-13T00:48:56;7.60;;;3.23;;
11699;SDS011;5906;51.660;6.674;2023-07-13T00:51:27;11.13;;;3.70;;
11699;SDS011;5906;51.660;6.674;2023-07-13T00:54:26;12.63;;;4.30;;
11699;SDS011;5906;51.660;6.674;2023-07-13T00:56:58;10.37;;;3.00;;
11699;SDS011;5906;51.660;6.674;2023-07-13T00:59:29;5.27;;;2.90;;
11699;SDS011;5906;51.660;6.674;2023-07-13T01:01:57;5.40;;;2.90;;
11699;SDS011;5906;51.660;6.674;2023-07-13T01:04:25;8.40;;;3.20;;
11699;SDS011;5906;51.660;6.674;2023-07-13T01:06:52;4.70;;;2.60;;
11699;SDS011;5906;51.660;6.674;2023-07-13T01:09:19;7.57;;;3.00;;
11699;SDS011;5906;51.660;6.674;2023-07-13T01:11:47;5.10;;;2.70;;
11699;SDS011;5906;51.660;6.674;2023-07-13T01:14:14;8.23;;;2.67;;
11699;SDS011;5906;51.660;6.674;2023-07-13T01:16:43;4.63;;;2.70;;
11699;SDS011;5906;51.660;6.674;2023-07-13T01:22:06;5.70;;;2.83;;
11699;SDS011;5906;51.660;6.674;2023-07-13T01:24:36;11.80;;;2.80;;
11699;SDS011;5906;51.660;6.674;2023-07-13T01:27:04;8.23;;;2.93;;
11699;SDS011;5906;51.660;6.674;2023-07-13T01:29:33;5.17;;;3.00;;
11699;SDS011;5906;51.660;6.674;2023-07-13T01:32:09;10.40;;;3.70;;
11699;SDS011;5906;51.660;6.674;2023-07-13T01:34:38;13.07;;;3.03;;
11699;SDS011;5906;51.660;6.674;2023-07-13T01:37:09;10.80;;;2.80;;
11699;SDS011;5906;51.660;6.674;2023-07-13T01:39:37;7.47;;;2.80;;
11699;SDS011;5906;51.660;6.674;2023-07-13T01:42:04;8.63;;;3.13;;
11699;SDS011;5906;51.660;6.674;2023-07-13T01:44:31;4.53;;;2.47;;
11699;SDS011;5906;51.660;6.674;2023-07-13T01:46:58;5.00;;;2.47;;
11699;SDS011;5906;51.660;6.674;2023-07-13T01:49:25;4.20;;;3.40;;
11699;SDS011;5906;51.660;6.674;2023-07-13T01:51:52;9.53;;;2.77;;
11699;SDS011;5906;51.660;6.674;2023-07-13T01:54:19;8.33;;;3.57;;
11699;SDS011;5906;51.660;6.674;2023-07-13T01:56:46;11.23;;;4.70;;
11699;SDS011;5906;51.660;6.674;2023-07-13T01:59:13;10.60;;;3.90;;
11699;SDS011;5906;51.660;6.674;2023-07-13T02:01:39;7.77;;;3.93;;
11699;SDS011;5906;51.660;6.674;2023-07-13T02:04:06;6.73;;;3.87;;
11699;SDS011;5906;51.660;6.674;2023-07-13T02:06:33;11.03;;;4.10;;
11699;SDS011;5906;51.660;6.674;2023-07-13T02:09:00;8.63;;;4.20;;
11699;SDS011;5906;51.660;6.674;2023-07-13T02:11:27;6.57;;;3.70;;
11699;SDS011;5906;51.660;6.674;2023-07-13T02:13:59;7.87;;;4.17;;
11699;SDS011;5906;51.660;6.674;2023-07-13T02:16:28;12.10;;;5.27;;
11699;SDS011;5906;51.660;6.674;2023-07-13T02:18:56;7.87;;;3.77;;
11699;SDS011;5906;51.660;6.674;2023-07-13T02:21:23;6.60;;;3.13;;
11699;SDS011;5906;51.660;6.674;2023-07-13T02:23:50;5.43;;;3.37;;
11699;SDS011;5906;51.660;6.674;2023-07-13T02:26:17;5.50;;;3.20;;
11699;SDS011;5906;51.660;6.674;2023-07-13T02:28:44;6.43;;;3.20;;
11699;SDS011;5906;51.660;6.674;2023-07-13T02:31:11;6.10;;;4.10;;
11699;SDS011;5906;51.660;6.674;2023-07-13T02:33:40;33.27;;;4.83;;
11699;SDS011;5906;51.660;6.674;2023-07-13T02:36:07;6.27;;;2.90;;
11699;SDS011;5906;51.660;6.674;2023-07-13T02:38:35;8.77;;;3.20;;
11699;SDS011;5906;51.660;6.674;2023-07-13T02:41:03;10.50;;;3.20;;
11699;SDS011;5906;51.660;6.674;2023-07-13T02:43:32;8.20;;;3.67;;
11699;SDS011;5906;51.660;6.674;2023-07-13T02:45:59;7.17;;;3.17;;
11699;SDS011;5906;51.660;6.674;2023-07-13T02:48:30;9.53;;;3.50;;
11699;SDS011;5906;51.660;6.674;2023-07-13T02:50:57;9.43;;;3.93;;
11699;SDS011;5906;51.660;6.674;2023-07-13T02:53:24;10.50;;;5.00;;
11699;SDS011;5906;51.660;6.674;2023-07-13T02:55:51;13.27;;;5.23;;
11699;SDS011;5906;51.660;6.674;2023-07-13T02:58:18;10.10;;;4.70;;
11699;SDS011;5906;51.660;6.674;2023-07-13T03:00:45;8.07;;;4.20;;
11699;SDS011;5906;51.660;6.674;2023-07-13T03:03:13;7.57;;;3.50;;
11699;SDS011;5906;51.660;6.674;2023-07-13T03:05:41;12.47;;;3.80;;
11699;SDS011;5906;51.660;6.674;2023-07-13T03:08:09;7.63;;;2.97;;
11699;SDS011;5906;51.660;6.674;2023-07-13T03:10:37;8.90;;;3.30;;
11699;SDS011;5906;51.660;6.674;2023-07-13T03:13:06;4.93;;;2.70;;
11699;SDS011;5906;51.660;6.674;2023-07-13T03:15:33;6.60;;;2.83;;
11699;SDS011;5906;51.660;6.674;2023-07-13T03:17:59;8.00;;;3.60;;
11699;SDS011;5906;51.660;6.674;2023-07-13T03:20:26;8.10;;;3.17;;
11699;SDS011;5906;51.660;6.674;2023-07-13T03:22:53;11.30;;;3.33;;
11699;SDS011;5906;51.660;6.674;2023-07-13T03:25:20;16.53;;;3.70;;
11699;SDS011;5906;51.660;6.674;2023-07-13T03:27:47;5.90;;;3.00;;
11699;SDS011;5906;51.660;6.674;2023-07-13T03:30:14;6.80;;;2.60;;
11699;SDS011;5906;51.660;6.674;2023-07-13T03:32:40;6.90;;;3.00;;
11699;SDS011;5906;51.660;6.674;2023-07-13T03:35:08;8.40;;;3.40;;
11699;SDS011;5906;51.660;6.674;2023-07-13T03:37:36;15.00;;;3.53;;
11699;SDS011;5906;51.660;6.674;2023-07-13T03:40:09;7.70;;;3.07;;
11699;SDS011;5906;51.660;6.674;2023-07-13T03:42:37;7.20;;;3.27;;
11699;SDS011;5906;51.660;6.674;2023-07-13T03:45:04;8.40;;;3.07;;
11699;SDS011;5906;51.660;6.674;2023-07-13T03:47:31;7.87;;;3.00;;
11699;SDS011;5906;51.660;6.674;2023-07-13T03:49:59;4.80;;;3.13;;
11699;SDS011;5906;51.660;6.674;2023-07-13T03:52:25;12.00;;;3.60;;
11699;SDS011;5906;51.660;6.674;2023-07-13T03:54:52;14.90;;;3.57;;
11699;SDS011;5906;51.660;6.674;2023-07-13T03:57:20;9.87;;;3.43;;
11699;SDS011;5906;51.660;6.674;2023-07-13T03:59:46;7.97;;;3.07;;
11699;SDS011;5906;51.660;6.674;2023-07-13T04:02:13;16.00;;;3.47;;
11699;SDS011;5906;51.660;6.674;2023-07-13T04:04:40;8.27;;;3.27;;
11699;SDS011;5906;51.660;6.674;2023-07-13T04:07:07;7.10;;;3.67;;
11699;SDS011;5906;51.660;6.674;2023-07-13T04:09:35;8.53;;;3.53;;
11699;SDS011;5906;51.660;6.674;2023-07-13T04:12:02;11.40;;;3.07;;
11699;SDS011;5906;51.660;6.674;2023-07-13T04:14:29;11.70;;;3.50;;
11699;SDS011;5906;51.660;6.674;2023-07-13T04:16:56;12.43;;;3.40;;
11699;SDS011;5906;51.660;6.674;2023-07-13T04:19:23;11.57;;;3.70;;
11699;SDS011;5906;51.660;6.674;2023-07-13T04:21:50;11.87;;;3.47;;
11699;SDS011;5906;51.660;6.674;2023-07-13T04:24:17;7.80;;;2.83;;
11699;SDS011;5906;51.660;6.674;2023-07-13T04:26:44;9.07;;;3.60;;
11699;SDS011;5906;51.660;6.674;2023-07-13T04:29:11;6.90;;;3.20;;
11699;SDS011;5906;51.660;6.674;2023-07-13T04:31:38;7.97;;;3.10;;
11699;SDS011;5906;51.660;6.674;2023-07-13T04:34:05;9.17;;;3.03;;
11699;SDS011;5906;51.660;6.674;2023-07-13T04:36:32;5.13;;;3.13;;
11699;SDS011;5906;51.660;6.674;2023-07-13T04:38:59;8.80;;;2.90;;
11699;SDS011;5906;51.660;6.674;2023-07-13T04:41:26;9.10;;;3.20;;
11699;SDS011;5906;51.660;6.674;2023-07-13T04:43:54;5.40;;;2.90;;
11699;SDS011;5906;51.660;6.674;2023-07-13T04:46:22;8.77;;;3.10;;
11699;SDS011;5906;51.660;6.674;2023-07-13T04:48:49;4.17;;;3.00;;
11699;SDS011;5906;51.660;6.674;2023-07-13T04:51:20;6.37;;;3.13;;
11699;SDS011;5906;51.660;6.674;2023-07-13T04:53:46;6.13;;;3.10;;
11699;SDS011;5906;51.660;6.674;2023-07-13T04:56:13;23.83;;;3.67;;
11699;SDS011;5906;51.660;6.674;2023-07-13T04:58:40;8.93;;;2.73;;
11699;SDS011;5906;51.660;6.674;2023-07-13T05:01:07;8.93;;;3.30;;
11699;SDS011;5906;51.660;6.674;2023-07-13T05:03:36;5.13;;;3.00;;
11699;SDS011;5906;51.660;6.674;2023-07-13T05:06:04;7.53;;;3.53;;
11699;SDS011;5906;51.660;6.674;2023-07-13T05:08:33;9.63;;;3.70;;
11699;SDS011;5906;51.660;6.674;2023-07-13T05:11:00;14.73;;;3.13;;
11699;SDS011;5906;51.660;6.674;2023-07-13T05:13:28;7.00;;;3.53;;
11699;SDS011;5906;51.660;6.674;2023-07-13T05:15:59;8.33;;;3.70;;
11699;SDS011;5906;51.660;6.674;2023-07-13T05:18:32;9.87;;;3.60;;
11699;SDS011;5906;51.660;6.674;2023-07-13T05:21:04;10.47;;;3.50;;
11699;SDS011;5906;51.660;6.674;2023-07-13T05:23:34;9.60;;;3.70;;
11699;SDS011;5906;51.660;6.674;2023-07-13T05:26:03;19.87;;;3.97;;
11699;SDS011;5906;51.660;6.674;2023-07-13T05:28:35;10.17;;;3.60;;
11699;SDS011;5906;51.660;6.674;2023-07-13T05:31:03;12.83;;;4.50;;
11699;SDS011;5906;51.660;6.674;2023-07-13T05:33:30;10.30;;;3.53;;
11699;SDS011;5906;51.660;6.674;2023-07-13T05:35:57;13.40;;;3.57;;
11699;SDS011;5906;51.660;6.674;2023-07-13T05:38:24;16.07;;;3.40;;
11699;SDS011;5906;51.660;6.674;2023-07-13T05:40:51;9.40;;;3.87;;
11699;SDS011;5906;51.660;6.674;2023-07-13T05:43:19;10.77;;;3.60;;
11699;SDS011;5906;51.660;6.674;2023-07-13T05:45:46;10.13;;;4.60;;
11699;SDS011;5906;51.660;6.674;2023-07-13T05:48:13;15.40;;;4.20;;
11699;SDS011;5906;51.660;6.674;2023-07-13T05:50:40;12.03;;;5.00;;
11699;SDS011;5906;51.660;6.674;2023-07-13T05:53:09;11.20;;;4.10;;
11699;SDS011;5906;51.660;6.674;2023-07-13T05:55:56;12.43;;;4.43;;
11699;SDS011;5906;51.660;6.674;2023-07-13T05:58:26;11.20;;;4.50;;
11699;SDS011;5906;51.660;6.674;2023-07-13T06:01:03;19.70;;;4.37;;
11699;SDS011;5906;51.660;6.674;2023-07-13T06:03:32;10.07;;;4.33;;
11699;SDS011;5906;51.660;6.674;2023-07-13T06:06:00;11.70;;;4.93;;
11699;SDS011;5906;51.660;6.674;2023-07-13T06:08:30;24.07;;;5.57;;
11699;SDS011;5906;51.660;6.674;2023-07-13T06:11:09;15.40;;;4.80;;
11699;SDS011;5906;51.660;6.674;2023-07-13T06:13:46;11.63;;;4.87;;
11699;SDS011;5906;51.660;6.674;2023-07-13T06:16:13;13.47;;;5.70;;
11699;SDS011;5906;51.660;6.674;2023-07-13T06:18:41;11.80;;;4.43;;
11699;SDS011;5906;51.660;6.674;2023-07-13T06:21:13;13.67;;;5.00;;
11699;SDS011;5906;51.660;6.674;2023-07-13T06:23:42;17.20;;;5.20;;
11699;SDS011;5906;51.660;6.674;2023-07-13T06:26:10;23.97;;;6.07;;
11699;SDS011;5906;51.660;6.674;2023-07-13T06:28:38;15.13;;;5.53;;
11699;SDS011;5906;51.660;6.674;2023-07-13T06:31:06;13.77;;;6.43;;
11699;SDS011;5906;51.660;6.674;2023-07-13T06:33:38;18.13;;;6.60;;
11699;SDS011;5906;51.660;6.674;2023-07-13T06:36:14;12.67;;;6.10;;
11699;SDS011;5906;51.660;6.674;2023-07-13T06:38:43;15.03;;;7.00;;
11699;SDS011;5906;51.660;6.674;2023-07-13T06:41:11;15.97;;;6.60;;
11699;SDS011;5906;51.660;6.674;2023-07-13T06:43:49;20.57;;;5.83;;
11699;SDS011;5906;51.660;6.674;2023-07-13T06:46:22;20.60;;;6.50;;
11699;SDS011;5906;51.660;6.674;2023-07-13T06:48:56;13.90;;;6.40;;
11699;SDS011;5906;51.660;6.674;2023-07-13T06:51:28;24.30;;;7.70;;
11699;SDS011;5906;51.660;6.674;2023-07-13T06:53:56;23.57;;;6.40;;
11699;SDS011;5906;51.660;6.674;2023-07-13T06:56:24;18.87;;;7.50;;
11699;SDS011;5906;51.660;6.674;2023-07-13T06:58:52;19.43;;;6.60;;
11699;SDS011;5906;51.660;6.674;2023-07-13T07:01:24;22.53;;;7.13;;
11699;SDS011;5906;51.660;6.674;2023-07-13T07:03:53;18.80;;;7.33;;
11699;SDS011;5906;51.660;6.674;2023-07-13T07:06:24;16.83;;;7.33;;
11699;SDS011;5906;51.660;6.674;2023-07-13T07:08:57;15.63;;;7.13;;
11699;SDS011;5906;51.660;6.674;2023-07-13T07:11:24;14.13;;;7.20;;
11699;SDS011;5906;51.660;6.674;2023-07-13T07:13:52;21.00;;;6.60;;
11699;SDS011;5906;51.660;6.674;2023-07-13T07:16:20;23.33;;;7.07;;
11699;SDS011;5906;51.660;6.674;2023-07-13T07:18:47;16.07;;;6.60;;
11699;SDS011;5906;51.660;6.674;2023-07-13T07:21:15;15.87;;;7.40;;
11699;SDS011;5906;51.660;6.674;2023-07-13T07:23:42;15.20;;;6.93;;
11699;SDS011;5906;51.660;6.674;2023-07-13T07:26:10;17.20;;;6.83;;
11699;SDS011;5906;51.660;6.674;2023-07-13T07:28:37;11.97;;;6.07;;
11699;SDS011;5906;51.660;6.674;2023-07-13T07:33:37;13.13;;;5.00;;
11699;SDS011;5906;51.660;6.674;2023-07-13T07:36:04;20.13;;;6.57;;
11699;SDS011;5906;51.660;6.674;2023-07-13T07:38:34;15.20;;;5.17;;
11699;SDS011;5906;51.660;6.674;2023-07-13T07:41:03;16.43;;;6.10;;
11699;SDS011;5906;51.660;6.674;2023-07-13T07:43:34;14.33;;;6.10;;
11699;SDS011;5906;51.660;6.674;2023-07-13T07:46:02;11.40;;;7.10;;
11699;SDS011;5906;51.660;6.674;2023-07-13T07:48:30;10.97;;;5.00;;
11699;SDS011;5906;51.660;6.674;2023-07-13T07:50:57;19.60;;;5.90;;
11699;SDS011;5906;51.660;6.674;2023-07-13T07:53:25;13.37;;;5.10;;
11699;SDS011;5906;51.660;6.674;2023-07-13T07:55:52;11.23;;;5.20;;
11699;SDS011;5906;51.660;6.674;2023-07-13T07:58:22;15.13;;;5.33;;
11699;SDS011;5906;51.660;6.674;2023-07-13T08:00:52;11.17;;;5.20;;
11699;SDS011;5906;51.660;6.674;2023-07-13T08:03:22;24.07;;;5.10;;
11699;SDS011;5906;51.660;6.674;2023-07-13T08:05:54;12.20;;;5.47;;
11699;SDS011;5906;51.660;6.674;2023-07-13T08:08:24;13.43;;;5.53;;
11699;SDS011;5906;51.660;6.674;2023-07-13T08:10:52;20.13;;;6.07;;
11699;SDS011;5906;51.660;6.674;2023-07-13T08:13:39;25.53;;;6.90;;
11699;SDS011;5906;51.660;6.674;2023-07-13T08:16:06;9.90;;;5.70;;
11699;SDS011;5906;51.660;6.674;2023-07-13T08:18:34;18.83;;;6.20;;
11699;SDS011;5906;51.660;6.674;2023-07-13T08:21:04;12.83;;;5.80;;
11699;SDS011;5906;51.660;6.674;2023-07-13T08:23:33;14.03;;;5.40;;
11699;SDS011;5906;51.660;6.674;2023-07-13T08:26:03;26.10;;;5.93;;
11699;SDS011;5906;51.660;6.674;2023-07-13T08:28:31;14.60;;;6.03;;
11699;SDS011;5906;51.660;6.674;2023-07-13T08:31:00;16.10;;;5.33;;
11699;SDS011;5906;51.660;6.674;2023-07-13T08:33:31;16.03;;;5.40;;
11699;SDS011;5906;51.660;6.674;2023-07-13T08:35:58;13.37;;;5.20;;
11699;SDS011;5906;51.660;6.674;2023-07-13T08:38:25;13.07;;;5.50;;
11699;SDS011;5906;51.660;6.674;2023-07-13T08:40:53;17.80;;;5.20;;
11699;SDS011;5906;51.660;6.674;2023-07-13T08:43:25;10.53;;;4.77;;
11699;SDS011;5906;51.660;6.674;2023-07-13T08:57:10;11.33;;;4.53;;
11699;SDS011;5906;51.660;6.674;2023-07-13T08:59:43;12.73;;;4.50;;
11699;SDS011;5906;51.660;6.674;2023-07-13T09:05:04;14.43;;;4.47;;
11699;SDS011;5906;51.660;6.674;2023-07-13T09:10:20;14.03;;;3.87;;
11699;SDS011;5906;51.660;6.674;2023-07-13T09:13:12;8.63;;;4.80;;
11699;SDS011;5906;51.660;6.674;2023-07-13T09:15:57;7.90;;;4.00;;
11699;SDS011;5906;51.660;6.674;2023-07-13T09:18:34;12.03;;;4.90;;
11699;SDS011;5906;51.660;6.674;2023-07-13T09:23:42;11.07;;;4.97;;
11699;SDS011;5906;51.660;6.674;2023-07-13T09:28:43;13.00;;;4.53;;
11699;SDS011;5906;51.660;6.674;2023-07-13T09:31:16;10.03;;;4.77;;
11699;SDS011;5906;51.660;6.674;2023-07-13T09:34:19;10.73;;;5.17;;
11699;SDS011;5906;51.660;6.674;2023-07-13T09:36:47;14.17;;;4.90;;
11699;SDS011;5906;51.660;6.674;2023-07-13T09:39:18;8.07;;;4.40;;
11699;SDS011;5906;51.660;6.674;2023-07-13T09:42:00;8.47;;;4.37;;
11699;SDS011;5906;51.660;6.674;2023-07-13T09:44:35;12.67;;;4.60;;
11699;SDS011;5906;51.660;6.674;2023-07-13T09:50:08;12.90;;;4.73;;
11699;SDS011;5906;51.660;6.674;2023-07-13T09:52:47;8.60;;;4.70;;
11699;SDS011;5906;51.660;6.674;2023-07-13T09:58:24;11.93;;;5.80;;
11699;SDS011;5906;51.660;6.674;2023-07-13T10:01:03;19.20;;;5.70;;
11699;SDS011;5906;51.660;6.674;2023-07-13T10:03:38;11.77;;;4.70;;
11699;SDS011;5906;51.660;6.674;2023-07-13T10:06:26;11.00;;;4.87;;
11699;SDS011;5906;51.660;6.674;2023-07-13T10:08:59;11.73;;;4.37;;
11699;SDS011;5906;51.660;6.674;2023-07-13T10:11:35;10.63;;;5.23;;
11699;SDS011;5906;51.660;6.674;2023-07-13T10:14:20;11.87;;;4.70;;
11699;SDS011;5906;51.660;6.674;2023-07-13T10:17:00;11.97;;;4.97;;
11699;SDS011;5906;51.660;6.674;2023-07-13T10:19:47;9.40;;;4.27;;
11699;SDS011;5906;51.660;6.674;2023-07-13T10:24:56;11.80;;;4.80;;
11699;SDS011;5906;51.660;6.674;2023-07-13T10:27:35;9.33;;;4.70;;
11699;SDS011;5906;51.660;6.674;2023-07-13T10:30:18;8.90;;;4.10;;
11699;SDS011;5906;51.660;6.674;2023-07-13T10:33:54;10.57;;;4.10;;
11699;SDS011;5906;51.660;6.674;2023-07-13T10:39:09;13.10;;;4.17;;
11699;SDS011;5906;51.660;6.674;2023-07-13T10:41:52;8.13;;;4.00;;
11699;SDS011;5906;51.660;6.674;2023-07-13T10:44:24;8.37;;;3.47;;
11699;SDS011;5906;51.660;6.674;2023-07-13T10:47:00;11.17;;;3.90;;
11699;SDS011;5906;51.660;6.674;2023-07-13T10:49:37;8.97;;;3.37;;
11699;SDS011;5906;51.660;6.674;2023-07-13T10:52:55;8.33;;;3.50;;
11699;SDS011;5906;51.660;6.674;2023-07-13T10:58:02;7.40;;;3.07;;
11699;SDS011;5906;51.660;6.674;2023-07-13T11:12:26;8.13;;;3.20;;
11699;SDS011;5906;51.660;6.674;2023-07-13T11:19:54;12.47;;;3.27;;
11699;SDS011;5906;51.660;6.674;2023-07-13T11:22:50;14.40;;;2.87;;
11699;SDS011;5906;51.660;6.674;2023-07-13T11:27:51;10.77;;;3.47;;
11699;SDS011;5906;51.660;6.674;2023-07-13T11:30:31;6.27;;;3.13;;
11699;SDS011;5906;51.660;6.674;2023-07-13T11:35:36;12.47;;;3.20;;
11699;SDS011;5906;51.660;6.674;2023-07-13T11:38:28;11.73;;;2.80;;
11699;SDS011;5906;51.660;6.674;2023-07-13T11:41:22;6.13;;;2.87;;
11699;SDS011;5906;51.660;6.674;2023-07-13T11:44:06;8.20;;;3.30;;
11699;SDS011;5906;51.660;6.674;2023-07-13T11:46:56;6.97;;;3.10;;
11699;SDS011;5906;51.660;6.674;2023-07-13T11:49:38;4.97;;;3.20;;
11699;SDS011;5906;51.660;6.674;2023-07-13T11:52:21;5.40;;;2.77;;
11699;SDS011;5906;51.660;6.674;2023-07-13T11:55:04;5.93;;;3.10;;
11699;SDS011;5906;51.660;6.674;2023-07-13T11:57:50;5.93;;;2.50;;
11699;SDS011;5906;51.660;6.674;2023-07-13T12:00:22;5.50;;;2.60;;
11699;SDS011;5906;51.660;6.674;2023-07-13T12:03:01;10.00;;;2.67;;
11699;SDS011;5906;51.660;6.674;2023-07-13T12:05:31;10.50;;;3.07;;
11699;SDS011;5906;51.660;6.674;2023-07-13T12:07:59;8.33;;;2.97;;
11699;SDS011;5906;51.660;6.674;2023-07-13T12:10:36;7.50;;;3.00;;
11699;SDS011;5906;51.660;6.674;2023-07-13T12:13:08;2.97;;;2.23;;
11699;SDS011;5906;51.660;6.674;2023-07-13T12:15:41;5.67;;;2.57;;
11699;SDS011;5906;51.660;6.674;2023-07-13T12:18:13;10.70;;;3.83;;
11699;SDS011;5906;51.660;6.674;2023-07-13T12:20:51;6.83;;;2.70;;
11699;SDS011;5906;51.660;6.674;2023-07-13T12:23:44;9.33;;;2.90;;
11699;SDS011;5906;51.660;6.674;2023-07-13T12:26:17;9.60;;;3.13;;
11699;SDS011;5906;51.660;6.674;2023-07-13T12:28:49;8.70;;;3.80;;
11699;SDS011;5906;51.660;6.674;2023-07-13T12:34:06;21.43;;;6.40;;
11699;SDS011;5906;51.660;6.674;2023-07-13T12:37:22;9.33;;;5.60;;
11699;SDS011;5906;51.660;6.674;2023-07-13T12:39:46;14.30;;;6.27;;
11699;SDS011;5906;51.660;6.674;2023-07-13T12:42:24;18.87;;;7.30;;
11699;SDS011;5906;51.660;6.674;2023-07-13T12:45:02;9.40;;;6.03;;
11699;SDS011;5906;51.660;6.674;2023-07-13T12:47:48;11.27;;;4.60;;
11699;SDS011;5906;51.660;6.674;2023-07-13T12:50:21;7.23;;;5.03;;
11699;SDS011;5906;51.660;6.674;2023-07-13T12:52:54;9.13;;;4.90;;
11699;SDS011;5906;51.660;6.674;2023-07-13T12:55:27;9.13;;;4.80;;
11699;SDS011;5906;51.660;6.674;2023-07-13T12:58:02;10.47;;;4.63;;
11699;SDS011;5906;51.660;6.674;2023-07-13T13:00:33;6.77;;;5.10;;
11699;SDS011;5906;51.660;6.674;2023-07-13T13:03:26;10.27;;;4.50;;
11699;SDS011;5906;51.660;6.674;2023-07-13T13:06:04;12.70;;;5.63;;
11699;SDS011;5906;51.660;6.674;2023-07-13T13:08:35;8.27;;;5.40;;
11699;SDS011;5906;51.660;6.674;2023-07-13T13:11:05;9.13;;;5.50;;
11699;SDS011;5906;51.660;6.674;2023-07-13T13:13:33;7.37;;;5.73;;
11699;SDS011;5906;51.660;6.674;2023-07-13T13:16:23;6.83;;;4.53;;
11699;SDS011;5906;51.660;6.674;2023-07-13T13:19:37;9.40;;;4.80;;
11699;SDS011;5906;51.660;6.674;2023-07-13T13:22:04;5.47;;;4.50;;
11699;SDS011;5906;51.660;6.674;2023-07-13T13:24:46;7.00;;;4.60;;
11699;SDS011;5906;51.660;6.674;2023-07-13T13:27:18;11.00;;;4.67;;
11699;SDS011;5906;51.660;6.674;2023-07-13T13:29:50;4.70;;;4.20;;
11699;SDS011;5906;51.660;6.674;2023-07-13T13:32:19;6.93;;;3.80;;
11699;SDS011;5906;51.660;6.674;2023-07-13T13:34:47;6.60;;;4.73;;
11699;SDS011;5906;51.660;6.674;2023-07-13T13:37:22;5.93;;;4.23;;
11699;SDS011;5906;51.660;6.674;2023-07-13T13:39:57;10.83;;;4.70;;
11699;SDS011;5906;51.660;6.674;2023-07-13T13:42:37;8.87;;;4.33;;
11699;SDS011;5906;51.660;6.674;2023-07-13T13:45:09;9.13;;;4.47;;
11699;SDS011;5906;51.660;6.674;2023-07-13T13:47:39;6.97;;;4.93;;
11699;SDS011;5906;51.660;6.674;2023-07-13T13:50:13;6.93;;;4.70;;
11699;SDS011;5906;51.660;6.674;2023-07-13T13:52:47;6.93;;;5.13;;
11699;SDS011;5906;51.660;6.674;2023-07-13T13:55:17;11.23;;;6.47;;
11699;SDS011;5906;51.660;6.674;2023-07-13T13:57:48;7.67;;;5.20;;
11699;SDS011;5906;51.660;6.674;2023-07-13T14:00:16;8.70;;;5.87;;
11699;SDS011;5906;51.660;6.674;2023-07-13T14:02:45;9.17;;;6.10;;
11699;SDS011;5906;51.660;6.674;2023-07-13T14:05:21;9.17;;;5.70;;
11699;SDS011;5906;51.660;6.674;2023-07-13T14:07:54;9.30;;;6.43;;
11699;SDS011;5906;51.660;6.674;2023-07-13T14:10:24;9.50;;;5.10;;
11699;SDS011;5906;51.660;6.674;2023-07-13T14:12:56;7.20;;;5.00;;
11699;SDS011;5906;51.660;6.674;2023-07-13T14:15:29;13.10;;;5.73;;
11699;SDS011;5906;51.660;6.674;2023-07-13T14:18:02;11.10;;;4.67;;
11699;SDS011;5906;51.660;6.674;2023-07-13T14:20:30;7.50;;;5.07;;
11699;SDS011;5906;51.660;6.674;2023-07-13T14:22:58;7.50;;;4.60;;
11699;SDS011;5906;51.660;6.674;2023-07-13T14:25:27;5.00;;;3.90;;
11699;SDS011;5906;51.660;6.674;2023-07-13T14:27:55;5.50;;;3.77;;
11699;SDS011;5906;51.660;6.674;2023-07-13T14:30:26;6.00;;;3.77;;
11699;SDS011;5906;51.660;6.674;2023-07-13T14:32:53;4.83;;;3.37;;
11699;SDS011;5906;51.660;6.674;2023-07-13T14:35:20;5.77;;;3.47;;
11699;SDS011;5906;51.660;6.674;2023-07-13T14:37:50;6.03;;;4.00;;
11699;SDS011;5906;51.660;6.674;2023-07-13T14:40:19;6.53;;;3.80;;
11699;SDS011;5906;51.660;6.674;2023-07-13T14:42:52;4.33;;;3.60;;
11699;SDS011;5906;51.660;6.674;2023-07-13T14:45:19;10.33;;;3.43;;
11699;SDS011;5906;51.660;6.674;2023-07-13T14:47:47;6.40;;;3.87;;
11699;SDS011;5906;51.660;6.674;2023-07-13T14:52:43;7.07;;;4.07;;
11699;SDS011;5906;51.660;6.674;2023-07-13T14:55:14;6.10;;;4.33;;
11699;SDS011;5906;51.660;6.674;2023-07-13T14:57:45;6.20;;;4.20;;
11699;SDS011;5906;51.660;6.674;2023-07-13T15:00:16;8.67;;;4.73;;
11699;SDS011;5906;51.660;6.674;2023-07-13T15:02:48;8.43;;;4.30;;
11699;SDS011;5906;51.660;6.674;2023-07-13T15:05:19;20.70;;;4.30;;
11699;SDS011;5906;51.660;6.674;2023-07-13T15:07:49;9.67;;;4.70;;
11699;SDS011;5906;51.660;6.674;2023-07-13T15:10:19;8.27;;;4.70;;
11699;SDS011;5906;51.660;6.674;2023-07-13T15:12:47;13.33;;;5.20;;
11699;SDS011;5906;51.660;6.674;2023-07-13T15:15:14;14.47;;;7.00;;
11699;SDS011;5906;51.660;6.674;2023-07-13T15:17:42;13.43;;;6.70;;
11699;SDS011;5906;51.660;6.674;2023-07-13T15:22:44;9.40;;;6.97;;
11699;SDS011;5906;51.660;6.674;2023-07-13T15:25:20;11.20;;;6.80;;
11699;SDS011;5906;51.660;6.674;2023-07-13T15:27:51;11.47;;;6.50;;
11699;SDS011;5906;51.660;6.674;2023-07-13T15:30:19;15.13;;;5.80;;
11699;SDS011;5906;51.660;6.674;2023-07-13T15:32:47;13.43;;;6.87;;
11699;SDS011;5906;51.660;6.674;2023-07-13T15:35:19;11.03;;;6.60;;
11699;SDS011;5906;51.660;6.674;2023-07-13T15:37:48;12.70;;;5.83;;
11699;SDS011;5906;51.660;6.674;2023-07-13T15:40:16;11.40;;;6.47;;
11699;SDS011;5906;51.660;6.674;2023-07-13T15:42:44;7.43;;;6.00;;
11699;SDS011;5906;51.660;6.674;2023-07-13T15:47:51;10.47;;;5.33;;
11699;SDS011;5906;51.660;6.674;2023-07-13T15:50:19;9.53;;;4.87;;
11699;SDS011;5906;51.660;6.674;2023-07-13T15:52:49;8.17;;;5.03;;
11699;SDS011;5906;51.660;6.674;2023-07-13T15:55:19;12.23;;;4.57;;
11699;SDS011;5906;51.660;6.674;2023-07-13T15:57:50;10.30;;;5.00;;
11699;SDS011;5906;51.660;6.674;2023-07-13T16:00:20;13.87;;;4.87;;
11699;SDS011;5906;51.660;6.674;2023-07-13T16:02:50;9.70;;;5.20;;
11699;SDS011;5906;51.660;6.674;2023-07-13T16:05:18;9.00;;;5.07;;
11699;SDS011;5906;51.660;6.674;2023-07-13T16:07:48;10.13;;;4.70;;
11699;SDS011;5906;51.660;6.674;2023-07-13T16:10:20;8.57;;;4.30;;
11699;SDS011;5906;51.660;6.674;2023-07-13T16:12:51;8.93;;;4.47;;
11699;SDS011;5906;51.660;6.674;2023-07-13T16:15:20;9.13;;;4.93;;
11699;SDS011;5906;51.660;6.674;2023-07-13T16:17:47;6.83;;;3.93;;
11699;SDS011;5906;51.660;6.674;2023-07-13T16:20:15;6.50;;;4.43;;
11699;SDS011;5906;51.660;6.674;2023-07-13T16:22:46;7.90;;;4.03;;
11699;SDS011;5906;51.660;6.674;2023-07-13T16:25:20;9.77;;;4.37;;
11699;SDS011;5906;51.660;6.674;2023-07-13T16:27:50;9.37;;;4.10;;
11699;SDS011;5906;51.660;6.674;2023-07-13T16:30:23;7.20;;;3.80;;
11699;SDS011;5906;51.660;6.674;2023-07-13T16:32:55;7.47;;;4.27;;
11699;SDS011;5906;51.660;6.674;2023-07-13T16:35:26;9.23;;;3.70;;
11699;SDS011;5906;51.660;6.674;2023-07-13T16:37:54;11.13;;;4.00;;